AirNav   Air Wisconsin Up To $57,000 Bonus
 
 827 users online  

L65 Perris Valley Airport
Perris, California, USA

GOING TO PERRIS?


FAA INFORMATION EFFECTIVE 05 DECEMBER 2019

Location

FAA Identifier: L65
Lat/Long: 33-45-52.7000N 117-13-08.4000W
33-45.878333N 117-13.140000W
33.7646389,-117.2190000
(estimated)
Elevation: 1413 ft. / 431 m (estimated)
Variation: 14E (1985)
From city: 1 mile SE of PERRIS, CA
Time zone: UTC -8 (UTC -7 during Daylight Saving Time)
Zip code: 92570

Airport Operations

Airport use: Open to the public
Activation date: 10/1962
Control tower: no
ARTCC: LOS ANGELES CENTER
FSS: RIVERSIDE FLIGHT SERVICE STATION
NOTAMs facility: RAL (NOTAM-D service available)
Attendance: DAWN-DUSK
Wind indicator: yes
Segmented circle: yes

Airport Communications

CTAF: 122.775
WX AWOS-3 at HMT (10 nm E): 118.375 (951-925-6886)
WX AWOS-3 at F70 (12 nm S): 119.025 (951-696-1018)
WX ASOS at RAL (16 nm NW): 128.8 (951-352-4392)
WX AWOS-3 at SBD (20 nm N): 124.175 (909-382-0067)

Nearby radio navigation aids

VOR radial/distance  VOR name  Freq  Var
HDFr233/(1.8)HOMELAND VOR113.4014E
RALr121/(16.2)RIVERSIDE VOR112.4014E
PDZr106/18.0PARADISE VORTAC112.2015E
ELBr064/26.1EL TORO VOR/DME117.2014E
OCNr003/33.0OCEANSIDE VORTAC115.3015E
POMr109/34.0POMONA VORTAC110.4015E
PSPr248/39.8PALM SPRINGS VORTAC115.5013E

Airport Services

Fuel available: 100LL JET-A
FUEL AVBL FOR EMERG USE ONLY.
Parking: tiedowns
Airframe service: MAJOR
Powerplant service: MAJOR
Bottled oxygen: NONE
Bulk oxygen: NONE

Runway Information

Runway 15/33

Dimensions: 5100 x 50 ft. / 1554 x 15 m
Surface: asphalt, in good condition
RUNWAY 15  RUNWAY 33
Latitude: 33-46.286167N33-45.470333N
Longitude: 117-13.262333W117-13.018667W
Elevation: 1413.0 ft.
Traffic pattern: rightleft
Displaced threshold: 1900 ft.144 ft.
Markings: basic, in good conditionbasic, in good condition
Obstructions: 30 ft. trees, 150 ft. from runway, 5:1 slope to clear
APCH RATIO TO DSPLCD THR 20:1.
none
APCH RATIO TO DSPLCD THLD 50:1.

Airport Ownership and Management from official FAA records

Ownership: Privately-owned
Owner: B & D CONATSER
2091 GOETZ ROAD
PERRIS, CA 92570
Phone 951-943-3797
Manager: PAT CONATSER
P.O. BOX 1823
PERRIS, CA 92370
Phone 951-943-9673
MAIN OFFICE TO LEAVE MSGS W/SECY - (951) 657-3904 FAX: (951) 657-6178. EMAIL: PERRISAIR@AOL.COM

Airport Operational Statistics

Aircraft based on the field: 57
Single engine airplanes: 10
Multi engine airplanes: 11
Jet airplanes: 1
Ultralights: 35
    
Aircraft operations: avg 75/day *
91% local general aviation
9% transient general aviation
<1% military
* for 12-month period ending 31 March 2019

Additional Remarks

EXTSV ULTRALIGHT & PARACHUTING ACTIVITIES DAILY; DO NOT OVERFLY AIRPORT; AVOID AIRSPACE ADJ EAST. ULTRALIGHTS ON & INVOF ARPT. ULTRALIGHT AND PARACHUTING ACTIVITIES CAN BE MONITORED ON FREQ 122.775.
FOR CD CTC SOCAL APCH AT 800-448-3724.

Instrument Procedures

There are no published instrument procedures at L65.

Some nearby airports with instrument procedures:

KRIV - March Air Reserve Base (7 nm N)
KHMT - Hemet-Ryan Airport (10 nm E)
F70 - French Valley Airport (12 nm S)
KRAL - Riverside Municipal Airport (16 nm NW)
KRIR - Flabob Airport (16 nm NW)
KREI - Redlands Municipal Airport (20 nm N)
KSBD - San Bernardino International Airport (20 nm N)
 
Loc | Ops | Rwys | IFR | FBO | Links
Com | Nav | Svcs | Stats | Notes

San Bernardino International Airport Authority
 
Area around L65 (Perris Valley Airport)
 
Road maps at: MapQuest Bing Google
 
Aerial photo
WARNING: Photo may not be current or correct
Aerial photo of L65 (Perris Valley Airport)
Photo by Fred Emmert AirViews.com
Photo taken 26-Jan-2015
looking southeast.

Do you have a better or more recent aerial photo of Perris Valley Airport that you would like to share? If so, please send us your photo.

 
Sectional chart

 
Airport distance calculator
Flying to Perris Valley Airport? Find the distance to fly.

From to L65

Sunrise and sunset
Times for 08-Dec-2019
 Local
(UTC-8)
 Zulu
(UTC)
Morning civil twilight06:1514:15
Sunrise06:4214:42
Sunset16:3900:39
Evening civil twilight17:0701:07

Current date and time
Zulu (UTC)  09-Dec-2019 01:12:39
Local (UTC-8)  08-Dec-2019 17:12:39
 
METAR
KRIV 
7nm N 
090058Z AUTO 29004KT 10SM BKN029 BKN037 BKN044 13/13 A2999 RMK AO2 RAB03E14DZB14E16 CIG 029V043 SLP152 P0000 T01320132
KHMT 
10nm E 
090055Z AUTO 22009KT 10SM -RA BKN011 BKN032 OVC044 13/12 A3000 RMK AO2 P0024 T01320125
KF70 
12nm S 
090055Z AUTO 22006KT 10SM SCT012 BKN030 OVC039 13/12 A3001 RMK AO1
KRAL 
16nm NW 
090104Z 27006KT 10SM FEW014 FEW028 SCT046 14/12 A2999 RMK AO2 P0001 T01390122 $
TAF
KRIV 
7nm N 
082000Z 0820/1002 31009KT 9999 VCSH FEW012 SCT016 BKN025 OVC200 600706 QNH2999INS TEMPO 0820/0904 9999 -RA SCT012 BKN016 BKN025 BKN200 BECMG 0903/0904 VRB05KT 9999 VCSH BKN015 BKN025 OVC040 600606 QNH3000INS TEMPO 0904/0910 8000 -RA BR BKN010 OVC020 BECMG 0910/0911 15006KT 4800 BR VCSH OVC005 QNH3003INS BECMG 0915/0916 VRB06KT 9999 NSW SCT005 BKN010 QNH3008INS BECMG 0917/0918 34009KT 9999 FEW250 520204 QNH3008INS TEMPO 0919/0923 35012G20KT TX17/0822Z TN07/0912Z
NOTAMs
Click for the latest NOTAMs
NOTAMs are issued by the DoD/FAA and will open in a separate window not controlled by AirNav.

 

 
 

Would you like to see your business listed on this page?

 If your business provides an interesting product or service to pilots, flight crews, aircraft, or users of the Perris Valley Airport, you should consider listing it here.  To start the listing process, click on the button below
 
Add a business
 

Other Pages about Perris Valley Airport

Update a link
 
Copyright © AirNav, LLC. All rights reserved. Privacy Policy  Contact